Time;durP1;ratioP1;P1;durP2;ratioP2;P2;SDS_P1;SDS_P2;PMS_P1;PMS_P2;Temp;Humidity;BMP_temperature;BMP_pressure;BME280_temperature;BME280_humidity;BME280_pressure;Samples;Min_cycle;Max_cycle;Signal;HPM_P1;HPM_P2
2022/04/22 00:02:18;;;;;;;17.47;7.00;;;;;;;19.07;52.87;100851.72;5074448;28;20041;-53
2022/04/22 00:04:43;;;;;;;12.63;6.20;;;;;;;18.91;53.36;100854.19;5074579;28;20029;-55
2022/04/22 00:07:09;;;;;;;11.97;6.23;;;;;;;18.85;53.88;100851.66;5075428;28;20049;-56
2022/04/22 00:09:34;;;;;;;13.38;7.20;;;;;;;18.82;53.75;100855.72;5090296;28;20075;-54
2022/04/22 00:12:00;;;;;;;13.20;6.53;;;;;;;18.69;54.12;100856.88;5082454;28;20028;-55
2022/04/22 00:14:25;;;;;;;13.05;6.03;;;;;;;18.76;54.79;100852.09;5082556;28;20033;-54
2022/04/22 00:16:51;;;;;;;17.90;7.10;;;;;;;18.69;54.97;100851.47;5089583;28;20047;-55
2022/04/22 00:19:16;;;;;;;15.00;7.10;;;;;;;18.47;56.44;100854.94;5077856;28;20037;-56
2022/04/22 00:21:42;;;;;;;12.70;6.47;;;;;;;18.58;56.09;100855.91;5088835;28;20029;-55
2022/04/22 00:24:08;;;;;;;14.60;7.10;;;;;;;18.33;57.40;100846.31;5083471;28;20265;-51
2022/04/22 00:26:34;;;;;;;17.08;7.00;;;;;;;18.22;58.87;100857.25;5089511;28;20050;-51
2022/04/22 00:28:59;;;;;;;11.10;6.37;;;;;;;18.22;59.34;100846.41;5077948;28;20037;-55
2022/04/22 00:31:25;;;;;;;16.83;7.80;;;;;;;18.25;59.61;100845.94;5091040;28;20037;-55
2022/04/22 00:33:50;;;;;;;13.50;6.80;;;;;;;18.30;59.45;100843.31;5080879;28;20039;-52
2022/04/22 00:36:15;;;;;;;17.93;8.00;;;;;;;18.13;60.83;100841.41;5084241;28;20272;-55
2022/04/22 00:38:41;;;;;;;12.30;7.40;;;;;;;18.28;60.42;100840.03;5087740;28;20092;-54
2022/04/22 00:41:08;;;;;;;12.52;7.00;;;;;;;18.20;61.43;100838.56;5077636;28;20069;-52
2022/04/22 00:43:45;;;;;;;16.98;7.40;;;;;;;17.95;63.04;100841.63;5089718;28;20039;-50
2022/04/22 00:46:11;;;;;;;;;;;;;;;18.26;61.69;100834.06;5083814;28;20025;-51
2022/04/22 00:48:37;;;;;;;13.40;7.07;;;;;;;18.20;62.01;100839.38;5081351;28;19983;-51
2022/04/22 00:51:07;;;;;;;13.48;7.75;;;;;;;19.49;56.93;100836.72;5090411;28;20050;-54
2022/04/22 00:53:35;;;;;;;16.52;7.30;;;;;;;18.60;57.53;100826.69;5062272;28;20029;-53
2022/04/22 00:56:06;;;;;;;12.98;7.22;;;;;;;18.44;58.92;100825.63;5086297;28;20109;-53
2022/04/22 00:58:35;;;;;;;17.35;7.50;;;;;;;18.28;61.18;100821.09;5085723;28;20037;-56
2022/04/22 01:01:01;;;;;;;14.13;7.65;;;;;;;18.03;62.70;100825.03;5077914;28;20040;-55
2022/04/22 01:03:28;;;;;;;13.50;7.77;;;;;;;18.00;63.41;100815.47;5077034;28;20040;-54
2022/04/22 01:11:23;;;;;;;19.15;8.10;;;;;;;17.82;66.28;100805.72;5076935;28;20037;-56
2022/04/22 01:13:49;;;;;;;13.82;7.72;;;;;;;17.77;66.16;100805.66;5087395;28;20086;-55
2022/04/22 01:16:14;;;;;;;10.90;6.78;;;;;;;17.72;66.82;100802.84;5083589;28;20040;-56
2022/04/22 01:18:39;;;;;;;13.85;6.93;;;;;;;17.53;68.72;100800.38;5080657;28;20041;-55
2022/04/22 01:21:05;;;;;;;12.37;7.03;;;;;;;17.41;69.70;100794.19;5086329;28;20086;-55
2022/04/22 01:23:34;;;;;;;10.23;7.38;;;;;;;17.21;72.77;100795.44;5090431;28;20033;-57
2022/04/22 01:26:00;;;;;;;13.00;7.15;;;;;;;17.44;71.04;100808.06;5084261;28;20040;-56
2022/04/22 01:28:27;;;;;;;13.32;7.57;;;;;;;17.52;70.80;100800.59;5087437;28;20167;-57
2022/04/22 01:30:59;;;;;;;14.55;7.53;;;;;;;17.42;71.78;100795.81;5082535;28;20039;-56
2022/04/22 01:33:25;;;;;;;16.33;8.45;;;;;;;17.34;72.43;100791.63;5080133;28;20968;-56
2022/04/22 01:35:50;;;;;;;13.15;7.28;;;;;;;17.22;72.70;100788.97;5097048;28;20036;-54
2022/04/22 01:38:15;;;;;;;11.40;7.53;;;;;;;17.38;72.38;100784.66;5086921;28;20036;-50
2022/04/22 01:40:41;;;;;;;12.70;7.60;;;;;;;17.45;72.27;100789.94;5090332;28;20037;-54
2022/04/22 01:43:08;;;;;;;13.23;8.52;;;;;;;17.44;72.41;100786.44;5080279;28;20100;-56
2022/04/22 01:45:34;;;;;;;16.08;8.15;;;;;;;17.38;73.10;100791.97;5093686;28;20067;-55
2022/04/22 01:47:59;;;;;;;16.13;8.35;;;;;;;17.45;73.04;100781.81;5084680;28;20048;-55
2022/04/22 01:50:25;;;;;;;14.30;8.45;;;;;;;17.37;73.02;100787.63;5085810;28;20044;-53
2022/04/22 01:52:50;;;;;;;15.37;8.57;;;;;;;17.45;72.95;100782.66;5091706;28;20048;-52
2022/04/22 01:55:16;;;;;;;15.90;8.17;;;;;;;17.54;71.69;100788.50;5080350;28;20067;-53
2022/04/22 01:57:41;;;;;;;15.47;9.10;;;;;;;17.21;75.25;100787.34;5091863;28;20052;-54
2022/04/22 02:00:08;;;;;;;15.57;8.82;;;;;;;17.20;75.83;100777.59;5085742;28;20024;-56
2022/04/22 02:02:35;;;;;;;17.92;8.68;;;;;;;17.14;76.40;100779.38;5084961;28;20041;-53
2022/04/22 02:05:01;;;;;;;16.93;9.37;;;;;;;17.13;76.63;100780.44;5076809;28;20048;-55
2022/04/22 02:07:26;;;;;;;20.30;9.07;;;;;;;16.98;78.19;100775.56;5093481;28;20037;-51
2022/04/22 02:09:52;;;;;;;17.43;7.90;;;;;;;16.96;79.46;100787.66;5083308;28;20052;-56
2022/04/22 02:12:17;;;;;;;14.37;8.10;;;;;;;16.76;81.60;100778.88;5086886;28;20270;-50
2022/04/22 02:14:43;;;;;;;20.67;8.35;;;;;;;16.83;81.01;100778.75;5090129;28;20033;-54
2022/04/22 02:17:08;;;;;;;14.30;7.80;;;;;;;16.94;79.28;100777.06;5079982;28;20167;-49
2022/04/22 02:19:34;;;;;;;12.80;8.10;;;;;;;16.94;77.72;100777.06;5079290;28;20036;-52
2022/04/22 02:21:59;;;;;;;13.35;7.20;;;;;;;16.91;77.51;100769.44;5089063;28;20089;-52
2022/04/22 02:24:25;;;;;;;12.77;7.07;;;;;;;16.87;77.80;100779.09;5076624;28;20044;-52
2022/04/22 02:29:37;;;;;;;17.52;8.07;;;;;;;16.75;79.05;100782.63;5063863;28;20288;-51
2022/04/22 02:32:04;;;;;;;11.63;6.78;;;;;;;16.72;79.34;100777.72;5088641;28;20047;-51
2022/04/22 02:34:29;;;;;;;14.07;7.03;;;;;;;16.63;80.91;100773.75;5087385;28;20107;-51
2022/04/22 02:36:55;;;;;;;11.80;6.80;;;;;;;16.89;77.83;100776.97;5081083;28;20496;-55
2022/04/22 02:39:20;;;;;;;14.67;7.37;;;;;;;16.98;76.43;100775.56;5092986;28;20047;-53
2022/04/22 02:47:14;;;;;;;14.65;7.32;;;;;;;16.65;79.27;100774.31;5079160;28;20057;-55
2022/04/22 02:49:44;;;;;;;11.63;6.78;;;;;;;16.55;81.20;100772.22;5091451;28;20033;-55
2022/04/22 02:52:13;;;;;;;13.77;7.53;;;;;;;16.53;81.61;100760.84;5076092;28;20055;-54
2022/04/22 02:54:40;;;;;;;15.02;7.70;;;;;;;16.47;82.69;100765.31;5088779;28;20032;-54
2022/04/22 02:57:06;;;;;;;16.52;7.57;;;;;;;17.57;75.81;100760.97;5079240;28;20051;-53
2022/04/22 02:59:32;;;;;;;14.93;7.77;;;;;;;16.69;80.95;100761.16;5092614;28;20040;-56
2022/04/22 03:01:59;;;;;;;12.50;7.22;;;;;;;16.37;83.82;100756.97;5075682;28;20025;-54
2022/04/22 03:04:27;;;;;;;12.63;6.82;;;;;;;16.47;83.50;100757.22;5075355;28;20088;-56
2022/04/22 03:06:55;;;;;;;13.38;7.25;;;;;;;16.43;84.87;100764.16;5090600;28;20032;-52
2022/04/22 03:09:21;;;;;;;16.60;6.15;;;;;;;16.43;85.26;100753.34;5096023;28;20033;-55
2022/04/22 03:11:47;;;;;;;15.38;8.07;;;;;;;16.28;88.74;100758.41;5090143;28;20029;-53
2022/04/22 03:14:13;;;;;;;12.50;7.33;;;;;;;16.59;85.32;100750.97;5075296;28;20033;-54
2022/04/22 03:16:39;;;;;;;13.40;7.28;;;;;;;16.41;88.57;100755.47;5088148;28;20047;-56
2022/04/22 03:19:04;;;;;;;14.38;6.47;;;;;;;16.51;87.14;100754.88;5079193;28;20041;-55
2022/04/22 03:21:30;;;;;;;14.93;7.27;;;;;;;16.47;89.18;100753.69;5091882;28;20088;-54
2022/04/22 03:23:57;;;;;;;13.23;7.30;;;;;;;16.48;89.58;100747.22;5075622;28;20025;-53
2022/04/22 03:26:22;;;;;;;11.25;7.35;;;;;;;16.49;90.29;100762.34;5085115;28;20028;-55
2022/04/22 03:28:48;;;;;;;17.67;7.03;;;;;;;16.17;95.61;100750.09;5081590;28;20105;-54
2022/04/22 03:31:13;;;;;;;15.63;7.17;;;;;;;16.29;95.90;100747.38;5091657;28;20041;-55
2022/04/22 03:33:39;;;;;;;17.30;8.43;;;;;;;16.30;96.70;100746.31;5079339;28;20048;-53
2022/04/22 03:36:04;;;;;;;15.15;7.40;;;;;;;16.42;95.36;100746.31;5087619;28;20028;-52
2022/04/22 03:38:30;;;;;;;10.75;7.15;;;;;;;16.37;96.47;100748.88;5086608;28;20113;-54
2022/04/22 03:40:55;;;;;;;14.43;7.20;;;;;;;16.42;96.82;100745.47;5080208;28;20105;-55
2022/04/22 03:43:22;;;;;;;13.93;7.50;;;;;;;16.34;99.92;100743.97;5091091;28;20037;-54
2022/04/22 03:45:48;;;;;;;13.93;7.63;;;;;;;16.17;100.00;100743.84;5080471;28;20033;-55
2022/04/22 03:48:13;;;;;;;17.27;7.53;;;;;;;16.21;100.00;100745.03;5084837;28;20045;-53
2022/04/22 03:50:46;;;;;;;16.05;7.97;;;;;;;16.17;100.00;100739.28;5088195;28;20036;-50
2022/04/22 03:53:12;;;;;;;12.68;7.97;;;;;;;16.11;100.00;100744.81;5078071;28;20037;-56
2022/04/22 03:55:39;;;;;;;16.10;8.63;;;;;;;15.85;100.00;100747.69;5090893;28;20048;-49
2022/04/22 03:58:11;;;;;;;16.55;8.02;;;;;;;16.15;100.00;100735.19;5082447;28;20073;-54
2022/04/22 04:00:50;;;;;;;18.85;8.95;;;;;;;16.12;100.00;100733.75;5082881;28;20037;-52
2022/04/22 04:03:17;;;;;;;15.55;8.40;;;;;;;16.11;100.00;100728.63;5090825;28;20025;-57
2022/04/22 04:05:48;;;;;;;15.40;8.25;;;;;;;16.15;100.00;100729.78;5079147;28;20036;-55
2022/04/22 04:08:14;;;;;;;20.83;8.93;;;;;;;16.07;100.00;100736.34;5082353;28;20029;-57
2022/04/22 04:16:10;;;;;;;17.40;9.30;;;;;;;16.10;100.00;100725.09;5086002;28;20052;-54
2022/04/22 04:18:40;;;;;;;18.55;10.40;;;;;;;16.05;100.00;100719.59;5086104;28;20056;-51
2022/04/22 04:23:52;;;;;;;14.07;9.30;;;;;;;16.09;100.00;100709.97;5060078;28;20048;-52
2022/04/22 04:26:21;;;;;;;22.65;10.57;;;;;;;15.91;100.00;100716.31;5083740;28;20032;-53
2022/04/22 04:28:47;;;;;;;20.85;10.68;;;;;;;15.80;100.00;100707.13;5063654;28;20037;-50
2022/04/22 04:31:13;;;;;;;18.73;10.38;;;;;;;15.85;100.00;100720.72;5090941;28;20051;-50
2022/04/22 04:33:39;;;;;;;14.90;9.95;;;;;;;15.88;100.00;100725.66;5078001;28;20115;-50
2022/04/22 04:36:06;;;;;;;14.32;8.68;;;;;;;16.04;100.00;100726.03;5086938;28;20053;-54
2022/04/22 04:38:32;;;;;;;22.77;11.52;;;;;;;17.29;100.00;100732.88;5085546;28;20051;-52
2022/04/22 04:40:59;;;;;;;24.77;10.55;;;;;;;17.67;95.65;100732.44;5079142;28;20033;-53
2022/04/22 04:43:24;;;;;;;24.17;10.05;;;;;;;17.47;97.93;100731.03;5090465;28;20063;-56
2022/04/22 04:45:50;;;;;;;60.65;24.70;;;;;;;17.54;97.07;100734.41;5079369;28;20116;-52
2022/04/22 04:48:16;;;;;;;51.93;24.50;;;;;;;16.48;100.00;100734.56;5084759;28;20044;-53
2022/04/22 04:50:51;;;;;;;21.25;11.30;;;;;;;17.33;100.00;100739.47;5086760;28;20332;-53
2022/04/22 04:53:18;;;;;;;22.33;11.23;;;;;;;17.58;94.36;100734.72;5076685;28;20070;-55
2022/04/22 04:55:44;;;;;;;19.20;10.93;;;;;;;17.53;97.19;100732.78;5078279;28;20031;-56
2022/04/22 04:58:10;;;;;;;20.25;11.13;;;;;;;17.46;96.38;100734.81;5085935;28;20037;-56
2022/04/22 05:00:36;;;;;;;17.70;10.57;;;;;;;17.55;94.67;100729.81;5088488;28;20074;-57
2022/04/22 05:03:02;;;;;;;23.35;11.45;;;;;;;17.48;97.05;100736.22;5080360;28;20067;-56
2022/04/22 05:05:28;;;;;;;26.85;12.95;;;;;;;17.57;93.77;100741.19;5080276;28;20052;-54
2022/04/22 05:07:57;;;;;;;22.35;12.35;;;;;;;17.74;92.82;100744.75;5092381;28;20025;-52
2022/04/22 05:10:26;;;;;;;19.35;11.63;;;;;;;17.55;96.65;100738.75;5075994;28;20041;-55
2022/04/22 05:12:52;;;;;;;20.27;12.18;;;;;;;17.50;99.02;100749.47;5066986;28;20037;-53
2022/04/22 05:15:19;;;;;;;20.00;11.70;;;;;;;17.56;97.84;100735.00;5067837;28;20067;-56
2022/04/22 05:17:46;;;;;;;18.67;11.20;;;;;;;17.60;95.56;100738.00;5065241;28;20021;-56
2022/04/22 05:20:13;;;;;;;18.25;11.57;;;;;;;17.67;96.30;100733.28;5068071;28;20033;-52
2022/04/22 05:22:40;;;;;;;23.10;12.00;;;;;;;17.70;96.72;100740.06;5063557;28;20053;-55
2022/04/22 05:25:07;;;;;;;21.95;11.50;;;;;;;17.28;98.05;100736.66;5066197;28;20037;-53
2022/04/22 05:27:33;;;;;;;15.07;9.30;;;;;;;16.95;100.00;100732.78;5062641;28;20044;-55
2022/04/22 05:32:47;;;;;;;24.30;11.07;;;;;;;16.31;100.00;100729.06;5071957;28;20029;-55
2022/04/22 05:35:13;;;;;;;19.08;11.80;;;;;;;16.29;100.00;100728.50;5071336;28;20033;-56
2022/04/22 05:37:57;;;;;;;19.80;10.98;;;;;;;16.80;100.00;100732.47;5080086;28;20044;-54
2022/04/22 05:40:31;;;;;;;20.63;11.60;;;;;;;17.67;97.79;100729.75;5087544;28;20040;-55
2022/04/22 05:42:58;;;;;;;15.90;9.65;;;;;;;17.92;91.96;100742.84;5077231;28;20029;-55
2022/04/22 05:45:24;;;;;;;23.70;11.95;;;;;;;17.77;94.89;100738.03;5093426;28;20045;-54
2022/04/22 05:47:53;;;;;;;;;;;;;;;18.00;89.29;100744.34;5082453;28;20044;-54
2022/04/22 05:50:20;;;;;;;19.13;10.90;;;;;;;18.09;88.47;100744.72;5088162;28;19912;-54
2022/04/22 05:52:46;;;;;;;18.95;11.90;;;;;;;18.21;89.40;100748.16;5089736;28;20044;-54
2022/04/22 05:55:16;;;;;;;20.60;11.18;;;;;;;18.10;91.06;100741.78;5080062;28;20096;-52
2022/04/22 05:57:42;;;;;;;20.30;11.23;;;;;;;17.95;92.96;100746.94;5076061;28;20037;-52
2022/04/22 06:00:12;;;;;;;19.55;11.25;;;;;;;16.74;100.00;100748.59;5084799;28;20096;-54
2022/04/22 06:02:43;;;;;;;18.92;10.77;;;;;;;16.67;100.00;100739.81;5085201;28;20069;-57
2022/04/22 06:05:10;;;;;;;19.58;11.52;;;;;;;18.02;92.07;100747.63;5077089;28;20037;-50
2022/04/22 06:07:37;;;;;;;18.55;10.70;;;;;;;18.21;87.85;100742.75;5093548;28;20037;-54
2022/04/22 06:12:48;;;;;;;14.95;9.88;;;;;;;18.51;85.00;100743.44;5083741;28;20032;-55
2022/04/22 06:15:13;;;;;;;14.97;8.87;;;;;;;18.44;82.71;100740.91;5076131;28;20037;-51
2022/04/22 06:17:39;;;;;;;16.00;8.07;;;;;;;16.93;94.58;100732.22;5092646;28;20415;-49
2022/04/22 06:20:05;;;;;;;17.47;10.93;;;;;;;18.37;87.59;100740.28;5076959;28;20047;-53
2022/04/22 06:22:31;;;;;;;20.95;11.98;;;;;;;17.03;100.00;100739.72;5075733;28;20067;-55
2022/04/22 06:24:57;;;;;;;17.92;10.43;;;;;;;18.55;84.71;100745.38;5090280;28;20088;-56
2022/04/22 06:27:24;;;;;;;15.82;9.73;;;;;;;18.62;81.89;100743.31;5095203;28;20090;-53
2022/04/22 06:29:50;;;;;;;16.85;11.70;;;;;;;17.27;97.39;100740.41;5081237;28;20058;-51
2022/04/22 06:32:16;;;;;;;19.95;11.43;;;;;;;18.42;86.93;100741.13;5088096;28;20092;-52
2022/04/22 06:34:42;;;;;;;18.38;10.93;;;;;;;18.54;86.34;100748.34;5077636;28;20052;-55
2022/04/22 06:37:10;;;;;;;18.73;10.80;;;;;;;17.17;97.80;100745.66;5091812;28;20100;-54
2022/04/22 06:45:46;;;;;;;16.48;10.18;;;;;;;16.99;97.23;100739.38;5075520;28;20051;-56
2022/04/22 06:47:53;;;;;;;18.33;10.23;;;;;;;17.68;96.28;100740.31;5066681;28;20056;-54
2022/04/22 06:50:19;;;;;;;20.80;11.13;;;;;;;18.69;83.23;100732.28;5087115;28;20041;-53
2022/04/22 06:52:46;;;;;;;21.63;11.15;;;;;;;19.14;79.01;100734.94;5088220;28;20047;-55
2022/04/22 06:55:14;;;;;;;17.47;9.97;;;;;;;18.95;80.36;100729.88;5079527;28;20129;-54
2022/04/22 06:57:41;;;;;;;19.92;10.95;;;;;;;19.09;76.41;100732.19;5092252;28;20276;-57
2022/04/22 07:00:10;;;;;;;15.93;10.37;;;;;;;19.04;73.33;100724.84;5082901;28;20140;-53
2022/04/22 07:02:36;;;;;;;20.90;10.50;;;;;;;19.17;68.04;100734.47;5085027;28;20286;-56
2022/04/22 07:05:03;;;;;;;17.80;10.10;;;;;;;18.97;76.83;100726.88;5075803;28;20096;-56
2022/04/22 07:07:28;;;;;;;;;;;;;;;19.04;74.02;100727.56;5092432;28;20036;-55
2022/04/22 07:09:54;;;;;;;16.53;9.63;;;;;;;19.22;71.66;100729.09;5080625;28;19944;-53
2022/04/22 07:12:21;;;;;;;13.32;8.63;;;;;;;19.28;67.99;100725.34;5068281;28;20048;-54
2022/04/22 07:14:49;;;;;;;17.42;10.10;;;;;;;18.94;69.33;100717.41;5065312;28;20041;-56
2022/04/22 07:17:14;;;;;;;16.30;10.43;;;;;;;19.23;69.04;100729.88;5065717;28;20037;-51
2022/04/22 07:19:41;;;;;;;14.03;9.00;;;;;;;19.72;65.59;100729.78;5066779;28;20270;-56
2022/04/22 07:22:07;;;;;;;16.60;10.10;;;;;;;19.63;66.53;100725.91;5064831;28;20125;-56
2022/04/22 07:24:33;;;;;;;15.00;9.80;;;;;;;18.66;70.81;100721.94;5059289;28;20278;-55
2022/04/22 07:26:59;;;;;;;15.98;10.32;;;;;;;18.66;74.37;100710.31;5064817;28;20040;-57
2022/04/22 07:29:25;;;;;;;18.17;11.07;;;;;;;18.76;69.84;100713.13;5090607;28;20036;-53
2022/04/22 07:31:50;;;;;;;16.05;9.95;;;;;;;18.63;69.75;100711.63;5078365;28;20035;-56
2022/04/22 07:34:16;;;;;;;18.75;10.68;;;;;;;18.85;72.33;100708.06;5087322;28;20059;-55
2022/04/22 07:36:43;;;;;;;18.60;11.90;;;;;;;18.90;72.54;100708.94;5086253;28;20039;-53
2022/04/22 07:39:09;;;;;;;16.83;10.63;;;;;;;18.90;69.23;100705.41;5077872;28;20036;-56
2022/04/22 07:41:38;;;;;;;19.98;11.20;;;;;;;18.74;71.48;100713.38;5085395;28;20381;-55
2022/04/22 07:46:58;;;;;;;16.77;10.23;;;;;;;18.80;69.92;100703.44;5082267;28;20300;-54
2022/04/22 07:49:26;;;;;;;14.77;9.63;;;;;;;19.11;65.55;100713.78;5091432;28;20322;-53
2022/04/22 07:51:52;;;;;;;19.43;12.63;;;;;;;19.00;71.89;100708.28;5079494;28;20372;-57
2022/04/22 07:54:17;;;;;;;35.90;17.45;;;;;;;18.67;69.90;100706.53;5086315;28;20273;-56
2022/04/22 07:56:42;;;;;;;22.27;12.50;;;;;;;18.66;70.91;100707.59;5086536;28;20033;-52
2022/04/22 07:59:09;;;;;;;27.67;15.25;;;;;;;18.87;71.01;100706.75;5079725;28;20051;-55
2022/04/22 08:01:35;;;;;;;19.70;11.20;;;;;;;19.06;66.55;100709.94;5090797;28;20044;-57
2022/04/22 08:04:01;;;;;;;30.20;14.98;;;;;;;19.20;67.17;100709.56;5074870;28;20041;-58
2022/04/22 08:06:27;;;;;;;21.30;13.23;;;;;;;19.41;67.77;100713.25;5079224;28;20063;-56
2022/04/22 08:08:53;;;;;;;24.02;12.88;;;;;;;19.37;66.62;100705.88;5073604;28;20266;-57
2022/04/22 08:11:20;;;;;;;28.57;16.23;;;;;;;19.51;65.66;100704.38;5078658;28;20032;-58
2022/04/22 08:13:46;;;;;;;31.27;16.20;;;;;;;20.47;61.85;100706.38;5068042;28;20100;-55
2022/04/22 08:16:13;;;;;;;42.47;21.50;;;;;;;20.99;58.52;100701.09;5065423;28;20267;-53
2022/04/22 08:18:38;;;;;;;34.90;17.23;;;;;;;21.40;59.04;100703.88;5065412;28;20059;-57
2022/04/22 08:21:04;;;;;;;25.60;14.65;;;;;;;21.69;55.54;100702.53;5070198;28;20282;-56
2022/04/22 08:23:29;;;;;;;31.23;17.37;;;;;;;21.69;54.78;100705.25;5083777;28;20048;-57
2022/04/22 08:25:55;;;;;;;27.75;13.38;;;;;;;22.13;54.16;100699.16;5070051;28;20087;-55
2022/04/22 08:28:21;;;;;;;28.63;14.80;;;;;;;21.77;53.38;100694.59;5085461;28;20044;-53
2022/04/22 08:30:47;;;;;;;23.57;11.60;;;;;;;21.84;52.50;100702.50;5082175;28;20040;-55
2022/04/22 08:33:13;;;;;;;21.57;11.53;;;;;;;21.76;53.14;100694.91;5089279;28;20266;-57
2022/04/22 08:35:39;;;;;;;18.52;10.55;;;;;;;21.67;52.42;100697.34;5074705;28;20064;-57
2022/04/22 08:38:06;;;;;;;21.45;11.65;;;;;;;21.48;53.28;100688.91;5077329;28;20028;-57
2022/04/22 08:40:35;;;;;;;26.00;12.47;;;;;;;21.63;53.10;100697.03;5065018;28;20037;-53
2022/04/22 08:43:01;;;;;;;41.13;21.77;;;;;;;21.89;52.93;100693.50;5061218;28;20371;-58
2022/04/22 08:45:28;;;;;;;52.13;27.65;;;;;;;21.96;53.47;100685.06;5062990;28;20315;-57
2022/04/22 08:50:41;;;;;;;20.60;10.63;;;;;;;22.12;53.70;100691.28;5075259;28;19912;-53
2022/04/22 08:53:11;;;;;;;16.37;9.73;;;;;;;20.62;55.39;100684.66;5072890;28;20270;-55
2022/04/22 08:55:39;;;;;;;15.07;9.20;;;;;;;20.19;56.06;100676.63;5059644;28;20267;-55
2022/04/22 08:58:05;;;;;;;13.90;8.40;;;;;;;21.57;53.29;100672.88;5075725;28;20280;-55
2022/04/22 09:00:34;;;;;;;17.20;9.97;;;;;;;22.17;51.33;100675.75;5072388;28;20282;-57
2022/04/22 09:03:00;;;;;;;14.63;8.83;;;;;;;22.34;50.16;100678.13;5087035;28;20273;-55
2022/04/22 09:05:27;;;;;;;15.45;8.65;;;;;;;22.29;49.96;100680.03;5077877;28;20270;-55
2022/04/22 09:07:53;;;;;;;15.65;8.18;;;;;;;22.61;48.83;100674.22;5062570;28;20037;-54
2022/04/22 09:10:19;;;;;;;17.15;8.82;;;;;;;22.83;48.05;100677.63;5071091;28;20060;-56
2022/04/22 09:12:52;;;;;;;13.05;8.00;;;;;;;23.06;47.19;100676.91;5071618;28;20028;-55
2022/04/22 09:15:23;;;;;;;15.87;8.13;;;;;;;23.74;46.46;100674.47;5072293;28;20040;-55
2022/04/22 09:17:49;;;;;;;11.00;6.83;;;;;;;24.02;44.26;100668.47;5058256;28;20337;-54
2022/04/22 09:20:15;;;;;;;11.20;7.28;;;;;;;24.10;44.00;100670.56;5068633;28;20048;-56
2022/04/22 09:22:44;;;;;;;15.23;7.82;;;;;;;24.65;43.28;100661.09;5067184;28;20029;-54
2022/04/22 09:25:09;;;;;;;14.90;8.23;;;;;;;25.43;41.42;100665.41;5061455;28;20052;-57
2022/04/22 09:27:42;;;;;;;19.42;7.38;;;;;;;25.87;40.15;100661.34;5063034;28;20029;-56
2022/04/22 09:30:11;;;;;;;13.63;8.47;;;;;;;26.38;40.02;100668.84;5065625;28;20041;-56
2022/04/22 09:32:39;;;;;;;11.07;7.60;;;;;;;26.43;38.68;100658.59;5069803;28;20025;-56
2022/04/22 09:35:16;;;;;;;13.63;7.67;;;;;;;27.43;37.42;100660.63;5068176;28;20046;-56
2022/04/22 09:43:48;;;;;;;10.50;7.00;;;;;;;28.52;34.08;100658.47;5059548;28;20088;-56
2022/04/22 09:46:30;;;;;;;14.80;7.70;;;;;;;28.87;33.19;100665.97;5072316;28;20037;-55
2022/04/22 09:48:58;;;;;;;13.47;7.27;;;;;;;28.74;32.85;100662.22;5065574;28;20087;-56
2022/04/22 09:51:26;;;;;;;16.07;7.63;;;;;;;29.51;32.00;100658.88;5071092;28;20063;-58
2022/04/22 09:54:03;;;;;;;14.73;7.60;;;;;;;29.87;31.25;100654.88;5067946;28;20036;-55
2022/04/22 09:56:29;;;;;;;;;;;;;;;30.04;30.73;100650.44;5072330;28;20483;-57
2022/04/22 09:58:56;;;;;;;10.60;6.33;;;;;;;30.11;30.50;100644.41;5071668;28;19969;-57
2022/04/22 10:01:24;;;;;;;8.63;6.03;;;;;;;30.56;30.10;100649.25;5062377;28;20075;-55
2022/04/22 10:03:50;;;;;;;10.87;6.07;;;;;;;30.92;29.31;100640.72;5068078;28;20055;-58
2022/04/22 10:06:15;;;;;;;11.03;5.43;;;;;;;30.82;29.09;100652.97;5066099;28;20112;-58
2022/04/22 10:08:43;;;;;;;;;;;;;;;30.61;28.93;100645.53;5063562;28;20037;-55
2022/04/22 10:11:13;;;;;;;9.33;6.57;;;;;;;30.56;29.16;100653.97;5064505;28;19913;-59
2022/04/22 10:13:44;;;;;;;13.83;6.70;;;;;;;31.53;28.33;100648.34;5070835;28;20044;-58
2022/04/22 10:16:11;;;;;;;16.60;7.20;;;;;;;31.83;28.03;100645.44;5067026;28;20048;-58
2022/04/22 10:18:38;;;;;;;12.50;6.67;;;;;;;32.05;27.59;100640.56;5066803;28;20044;-56
2022/04/22 10:21:04;;;;;;;9.13;5.67;;;;;;;31.80;27.28;100637.81;5069453;28;20072;-58
2022/04/22 10:23:30;;;;;;;9.67;6.57;;;;;;;32.06;27.43;100636.63;5063461;28;20513;-57
2022/04/22 10:25:59;;;;;;;9.13;5.47;;;;;;;32.07;27.04;100641.03;5066009;28;20044;-58
2022/04/22 10:28:27;;;;;;;14.35;5.78;;;;;;;32.27;27.42;100649.50;5072061;28;20104;-57
2022/04/22 10:30:54;;;;;;;8.07;5.30;;;;;;;32.45;26.79;100647.31;5088173;28;20024;-59
2022/04/22 10:33:25;;;;;;;11.15;5.97;;;;;;;31.28;27.52;100640.03;5079363;28;20040;-56
2022/04/22 10:35:58;;;;;;;10.82;5.93;;;;;;;31.43;27.42;100632.25;5063917;28;20054;-56
2022/04/22 10:38:33;;;;;;;10.27;5.27;;;;;;;32.17;27.09;100640.53;5068824;28;20036;-59
2022/04/22 10:41:03;;;;;;;10.52;5.60;;;;;;;31.83;26.60;100641.84;5071822;28;20104;-55
2022/04/22 10:43:29;;;;;;;13.00;5.47;;;;;;;32.07;26.45;100641.03;5064071;28;20059;-57
2022/04/22 10:48:40;;;;;;;9.00;5.38;;;;;;;32.02;26.62;100635.72;5060631;28;20056;-58
2022/04/22 10:51:09;;;;;;;13.38;5.25;;;;;;;32.68;25.98;100630.97;5064091;28;20025;-56
2022/04/22 10:53:49;;;;;;;10.68;5.47;;;;;;;33.58;25.06;100638.13;5073701;28;20038;-57
2022/04/22 10:56:27;;;;;;;8.93;5.00;;;;;;;33.75;24.83;100625.06;5073933;28;20032;-56
2022/04/22 10:59:20;;;;;;;10.32;5.45;;;;;;;32.26;25.76;100617.47;5068180;28;20036;-56
2022/04/22 11:01:47;;;;;;;9.40;4.70;;;;;;;33.57;25.10;100611.56;5067308;28;20037;-56
2022/04/22 11:04:26;;;;;;;8.35;4.45;;;;;;;34.08;24.21;100621.06;5057989;28;20085;-57
2022/04/22 11:06:53;;;;;;;6.90;4.68;;;;;;;33.25;24.43;100606.00;5058416;28;20029;-58
2022/04/22 11:09:26;;;;;;;8.60;5.13;;;;;;;35.05;23.90;100609.53;5060485;28;20044;-56
2022/04/22 11:11:54;;;;;;;7.82;4.70;;;;;;;35.56;22.66;100619.56;5069502;28;20025;-58
2022/04/22 11:14:23;;;;;;;9.63;4.55;;;;;;;35.64;22.23;100615.75;5067983;28;20048;-58
2022/04/22 11:16:49;;;;;;;6.85;4.10;;;;;;;35.80;22.09;100607.22;5058661;28;20319;-59
2022/04/22 11:19:17;;;;;;;7.63;4.50;;;;;;;34.31;22.78;100604.53;5068769;28;20055;-59
2022/04/22 11:21:44;;;;;;;7.85;3.25;;;;;;;32.37;24.56;100606.75;5061600;28;20049;-56
2022/04/22 11:24:26;;;;;;;7.47;4.25;;;;;;;32.69;24.83;100604.91;5065992;28;20048;-58
2022/04/22 11:27:01;;;;;;;13.15;5.40;;;;;;;31.63;26.09;100588.28;5061844;28;20033;-58
2022/04/22 11:29:26;;;;;;;9.02;4.45;;;;;;;31.36;25.23;100596.91;5071628;28;20059;-55
2022/04/22 11:32:16;;;;;;;6.70;4.43;;;;;;;30.31;26.83;100584.88;5065086;28;20029;-58
2022/04/22 11:34:46;;;;;;;10.20;5.00;;;;;;;29.84;27.85;100586.63;5057744;28;20036;-59
2022/04/22 11:37:19;;;;;;;13.50;5.70;;;;;;;29.53;28.04;100589.72;5061017;28;20051;-58
2022/04/22 11:39:47;;;;;;;11.93;7.23;;;;;;;29.54;27.84;100583.88;5069868;28;20032;-57
2022/04/22 11:42:13;;;;;;;11.87;5.53;;;;;;;29.20;29.11;100585.59;5055068;28;20048;-56
2022/04/22 11:44:39;;;;;;;17.85;9.38;;;;;;;28.70;29.06;100576.75;5060348;28;20021;-56
2022/04/22 11:47:04;;;;;;;12.23;6.07;;;;;;;28.46;29.96;100575.31;5062576;28;20029;-55
2022/04/22 11:49:32;;;;;;;10.95;6.35;;;;;;;28.74;30.10;100566.72;5057879;28;20056;-59
2022/04/22 11:51:59;;;;;;;12.53;6.70;;;;;;;28.32;30.53;100572.75;5064455;28;20031;-56
2022/04/22 11:54:25;;;;;;;13.47;6.70;;;;;;;28.23;30.13;100574.66;5062774;28;20053;-58
2022/04/22 11:56:54;;;;;;;12.40;7.00;;;;;;;28.68;30.28;100570.78;5057461;28;20037;-58
2022/04/22 11:59:21;;;;;;;15.23;5.83;;;;;;;28.55;30.86;100569.81;5066208;28;20048;-57
2022/04/22 12:10:00;;;;;;;7.90;5.00;;;;;;;26.22;33.71;100559.56;5065498;28;20033;-55
2022/04/22 12:12:28;;;;;;;14.07;5.43;;;;;;;26.44;33.69;100564.25;5060809;28;20044;-55
2022/04/22 12:15:01;;;;;;;14.53;6.30;;;;;;;26.11;33.15;100558.13;5063018;28;20104;-57